createdAt,value
2023-04-16T00:00:35.385Z,101891.91
2023-04-16T00:03:40.660Z,101889.13
2023-04-16T00:06:25.095Z,101887.53
2023-04-16T00:09:03.907Z,101890.31
2023-04-16T00:25:16.421Z,101885.19
2023-04-16T00:28:47.579Z,101885.19
2023-04-16T00:32:25.887Z,101887.19
2023-04-16T00:34:58.572Z,101882.88
2023-04-16T00:37:44.011Z,101880.06
2023-04-16T00:40:31.814Z,101890.41
2023-04-16T00:43:24.924Z,101881.28
2023-04-16T00:45:57.918Z,101886.84
2023-04-16T00:48:32.941Z,101884.06
2023-04-16T00:52:04.830Z,101885.31
2023-04-16T00:55:28.371Z,101878.16
2023-04-16T00:58:04.978Z,101880.16
2023-04-16T01:06:32.297Z,101881.41
2023-04-16T01:10:26.325Z,101881.41
2023-04-16T01:13:20.639Z,101880.59
2023-04-16T01:16:39.993Z,101873.47
2023-04-16T01:19:12.477Z,101879.06
2023-04-16T01:21:48.001Z,101879.81
2023-04-16T01:24:40.555Z,101877.47
2023-04-16T01:27:29.193Z,101880.25
2023-04-16T01:30:02.128Z,101875.91
2023-04-16T01:32:38.406Z,101874.34
2023-04-16T01:37:55.928Z,101879.91
2023-04-16T01:40:28.546Z,101878.38
2023-04-16T01:43:21.331Z,101879.56
2023-04-16T01:46:14.307Z,101882.38
2023-04-16T01:52:39.039Z,101888.75
2023-04-16T01:58:49.531Z,101880.81
2023-04-16T02:01:24.949Z,101880.81
2023-04-16T02:03:57.971Z,101886.41
2023-04-16T02:06:46.794Z,101882.03
2023-04-16T02:09:19.353Z,101882.03
2023-04-16T02:12:07.904Z,101877.66
2023-04-16T02:14:43.976Z,101880.44
2023-04-16T02:17:19.994Z,101872.84
2023-04-16T02:22:54.419Z,101869.72
2023-04-16T02:25:41.320Z,101870.53
2023-04-16T02:28:29.442Z,101880.09
2023-04-16T02:31:11.288Z,101880.09
2023-04-16T02:33:46.451Z,101872.97
2023-04-16T02:36:19.116Z,101872.16
2023-04-16T02:38:56.101Z,101878.56
2023-04-16T02:41:28.819Z,101865.03
2023-04-16T02:44:02.796Z,101876.97
2023-04-16T02:46:38.522Z,101881.00
2023-04-16T02:49:51.947Z,101881.00
2023-04-16T02:52:42.258Z,101876.63
2023-04-16T02:55:32.847Z,101885.00
2023-04-16T02:58:05.581Z,101887.00
2023-04-16T03:00:38.355Z,101886.66
2023-04-16T03:03:15.200Z,101882.66
2023-04-16T03:05:49.859Z,101881.88
2023-04-16T03:08:37.984Z,101885.88
2023-04-16T03:11:16.865Z,101891.47
2023-04-16T03:13:49.595Z,101891.47
2023-04-16T03:16:22.436Z,101892.69
2023-04-16T03:19:03.703Z,101893.13
2023-04-16T03:21:36.322Z,101893.91
2023-04-16T03:24:23.533Z,101904.28
2023-04-16T03:27:08.394Z,101914.63
2023-04-16T03:29:46.944Z,101903.47
2023-04-16T03:32:19.487Z,101897.91
2023-04-16T03:34:52.073Z,101903.47
2023-04-16T03:37:29.946Z,101911.06
2023-04-16T03:40:07.428Z,101905.94
2023-04-16T03:42:39.978Z,101901.59
2023-04-16T03:45:15.738Z,101898.78
2023-04-16T03:47:57.457Z,101900.38
2023-04-16T03:50:32.882Z,101898.78
2023-04-16T03:53:11.497Z,101898.03
2023-04-16T03:55:56.265Z,101892.44
2023-04-16T04:01:18.313Z,101906.81
2023-04-16T04:04:04.370Z,101897.25
2023-04-16T04:06:45.015Z,101906.81
2023-04-16T04:09:23.724Z,101905.28
2023-04-16T04:11:59.428Z,101910.84
2023-04-16T04:14:47.184Z,101907.25
2023-04-16T04:17:20.086Z,101910.03
2023-04-16T04:20:04.584Z,101910.84
2023-04-16T04:22:54.328Z,101914.06
2023-04-16T04:25:27.035Z,101914.06
2023-04-16T04:27:59.622Z,101910.50
2023-04-16T04:30:39.752Z,101917.28
2023-04-16T04:36:02.688Z,101924.44
2023-04-16T04:38:44.772Z,101928.44
2023-04-16T04:41:23.966Z,101925.63
2023-04-16T04:43:58.470Z,101924.09
2023-04-16T04:46:37.136Z,101925.28
2023-04-16T04:49:10.071Z,101928.09
2023-04-16T04:51:46.524Z,101921.72
2023-04-16T04:54:20.124Z,101922.97
2023-04-16T04:56:52.744Z,101934.13
2023-04-16T04:59:40.428Z,101927.75
2023-04-16T05:02:18.411Z,101933.31
2023-04-16T05:04:51.147Z,101931.75
2023-04-16T05:07:38.152Z,101935.75
2023-04-16T05:10:22.394Z,101935.75
2023-04-16T05:13:06.556Z,101938.53
2023-04-16T05:15:51.222Z,101935.75
2023-04-16T05:18:27.911Z,101939.78
2023-04-16T05:21:03.838Z,101945.34
2023-04-16T05:23:48.513Z,101950.91
2023-04-16T05:26:32.100Z,101944.56
2023-04-16T05:29:16.977Z,101949.34
2023-04-16T05:31:56.843Z,101944.56
2023-04-16T05:37:16.251Z,101958.94
2023-04-16T05:39:53.717Z,101958.94
2023-04-16T05:42:38.667Z,101959.72
2023-04-16T05:45:17.191Z,101961.28
2023-04-16T05:47:55.813Z,101971.97
2023-04-16T05:50:31.049Z,101964.78
2023-04-16T05:53:15.762Z,101965.13
2023-04-16T05:55:48.243Z,101969.38
2023-04-16T05:58:20.717Z,101970.06
2023-04-16T06:01:05.804Z,101971.97
2023-04-16T06:03:38.526Z,101975.00
2023-04-16T06:06:11.222Z,101971.69
2023-04-16T06:11:49.839Z,101979.78
2023-04-16T06:14:22.560Z,101979.22
2023-04-16T06:16:55.223Z,101980.25
2023-04-16T06:19:39.879Z,101980.94
2023-04-16T06:22:12.525Z,101985.53
2023-04-16T06:27:34.204Z,101988.03
2023-04-16T06:34:45.486Z,101999.66
2023-04-16T06:41:02.716Z,101996.09
2023-04-16T06:46:23.917Z,102007.38
2023-04-16T06:49:00.856Z,102009.28
2023-04-16T06:51:42.863Z,102010.72
2023-04-16T06:54:21.346Z,102016.22
2023-04-16T06:59:42.849Z,102023.16
2023-04-16T07:02:17.835Z,102026.63
2023-04-16T07:04:59.530Z,102025.72
2023-04-16T07:07:32.851Z,102029.22
2023-04-16T07:10:24.001Z,102032.34
2023-04-16T07:16:06.286Z,102032.13
2023-04-16T07:18:56.623Z,102031.22
2023-04-16T07:21:29.187Z,102043.06
2023-04-16T07:24:29.121Z,102047.78
2023-04-16T07:34:17.463Z,102056.59
2023-04-16T07:37:02.270Z,102051.34
2023-04-16T07:39:46.696Z,102058.81
2023-04-16T07:43:16.061Z,102065.50
2023-04-16T07:45:51.145Z,102055.47
2023-04-16T07:48:29.625Z,102066.19
2023-04-16T07:51:18.049Z,102071.34
2023-04-16T07:56:49.432Z,102074.81
2023-04-16T07:59:23.985Z,102077.94
2023-04-16T08:01:57.359Z,102074.69
2023-04-16T08:04:38.168Z,102077.03
2023-04-16T08:07:29.236Z,102082.16
2023-04-16T08:10:03.302Z,102087.00
2023-04-16T08:12:57.171Z,102089.78
2023-04-16T08:15:30.164Z,102099.38
2023-04-16T08:18:18.742Z,102100.97
2023-04-16T08:21:13.845Z,102099.38
2023-04-16T08:32:40.134Z,102106.75
2023-04-16T08:42:35.289Z,102110.13
2023-04-16T08:52:31.440Z,102117.50
2023-04-16T08:58:15.541Z,102125.53
2023-04-16T09:01:39.962Z,102121.19
2023-04-16T09:04:28.394Z,102137.63
2023-04-16T09:07:04.718Z,102128.91
2023-04-16T09:09:39.154Z,102122.97
2023-04-16T09:12:24.181Z,102124.22
2023-04-16T09:14:57.302Z,102126.69
2023-04-16T09:17:43.209Z,102127.56
2023-04-16T09:20:38.537Z,102133.59
2023-04-16T09:26:57.906Z,102137.69
2023-04-16T09:30:04.416Z,102141.75
2023-04-16T09:32:40.508Z,102146.22
2023-04-16T09:39:12.026Z,102152.66
2023-04-16T09:44:45.265Z,102152.78
2023-04-16T09:47:42.843Z,102158.03
2023-04-16T09:54:54.554Z,102157.34
2023-04-16T10:00:25.307Z,102157.88
2023-04-16T10:09:24.557Z,102157.53
2023-04-16T10:11:57.513Z,102155.94
2023-04-16T10:14:30.106Z,102162.78
2023-04-16T10:17:04.468Z,102161.97
2023-04-16T10:19:37.430Z,102162.44
2023-04-16T10:22:37.128Z,102165.22
2023-04-16T10:28:37.008Z,102167.69
2023-04-16T10:31:15.323Z,102171.69
2023-04-16T10:33:48.374Z,102173.25
2023-04-16T10:36:52.473Z,102170.03
2023-04-16T10:39:50.579Z,102172.38
2023-04-16T10:43:15.085Z,102179.41
2023-04-16T10:53:28.627Z,102174.22
2023-04-16T10:56:04.660Z,102176.47
2023-04-16T10:59:02.736Z,102177.16
2023-04-16T11:02:09.519Z,102181.88
2023-04-16T11:05:21.320Z,102178.94
2023-04-16T11:08:23.386Z,102175.63
2023-04-16T11:11:17.004Z,102174.72
2023-04-16T11:13:49.874Z,102178.97
2023-04-16T11:16:52.586Z,102174.06
2023-04-16T11:19:28.066Z,102170.41
2023-04-16T11:22:04.201Z,102176.63
2023-04-16T11:24:56.891Z,102178.56
2023-04-16T11:33:27.891Z,102170.28
2023-04-16T11:36:05.157Z,102175.44
2023-04-16T11:42:09.132Z,102170.84
2023-04-16T11:44:45.152Z,102166.03
2023-04-16T11:48:11.365Z,102175.19
2023-04-16T11:50:44.005Z,102178.00
2023-04-16T11:54:05.876Z,102179.53
2023-04-16T11:56:40.056Z,102173.84
2023-04-16T11:59:38.602Z,102176.66
2023-04-16T12:03:15.933Z,102179.78
2023-04-16T12:06:08.089Z,102184.94
2023-04-16T12:12:02.315Z,102196.00
2023-04-16T12:14:34.995Z,102197.56
2023-04-16T12:17:28.154Z,102199.59
2023-04-16T12:20:51.468Z,102196.00
2023-04-16T12:26:52.296Z,102202.03
2023-04-16T12:29:26.366Z,102198.78
2023-04-16T12:32:23.642Z,102196.78
2023-04-16T12:35:20.684Z,102192.31
2023-04-16T12:38:15.703Z,102196.66
2023-04-16T12:41:22.557Z,102187.06
2023-04-16T12:44:07.020Z,102185.81
2023-04-16T12:46:55.219Z,102190.19
2023-04-16T12:52:39.285Z,102197.31
2023-04-16T12:55:12.632Z,102192.50
2023-04-16T13:01:44.634Z,102199.78
2023-04-16T13:04:36.509Z,102209.44
2023-04-16T13:07:09.121Z,102195.09
2023-04-16T13:09:41.729Z,102198.69
2023-04-16T13:12:22.800Z,102190.72
2023-04-16T13:14:58.575Z,102194.78
2023-04-16T13:17:35.480Z,102196.78
2023-04-16T13:20:31.538Z,102201.56
2023-04-16T13:23:29.096Z,102200.03
2023-04-16T13:26:05.680Z,102198.44
2023-04-16T13:28:54.160Z,102204.03
2023-04-16T13:31:27.384Z,102198.91
2023-04-16T13:34:15.216Z,102210.53
2023-04-16T13:36:48.120Z,102192.97
2023-04-16T13:42:23.682Z,102200.94
2023-04-16T13:45:52.466Z,102197.34
2023-04-16T13:48:18.049Z,102198.56
2023-04-16T13:50:50.940Z,102193.75
2023-04-16T13:53:23.640Z,102192.22
2023-04-16T13:56:20.436Z,102188.16
2023-04-16T13:58:53.500Z,102194.53
2023-04-16T14:01:44.340Z,102189.41
2023-04-16T14:07:30.069Z,102197.81
2023-04-16T14:10:18.156Z,102192.22
2023-04-16T14:13:13.216Z,102192.22
2023-04-16T14:16:01.342Z,102186.63
2023-04-16T14:18:34.023Z,102184.16
2023-04-16T14:21:32.474Z,102185.38
2023-04-16T14:24:05.577Z,102184.59
2023-04-16T14:27:05.002Z,102188.16
2023-04-16T14:29:56.480Z,102185.38
2023-04-16T14:32:40.109Z,102185.38
2023-04-16T14:35:30.535Z,102187.38
2023-04-16T14:38:21.025Z,102185.81
2023-04-16T14:41:09.174Z,102187.84
2023-04-16T14:43:42.082Z,102183.47
2023-04-16T14:49:12.224Z,102179.78
2023-04-16T14:55:15.092Z,102183.91
2023-04-16T14:57:56.408Z,102181.47
2023-04-16T15:00:55.691Z,102179.34
2023-04-16T15:03:33.893Z,102182.81
2023-04-16T15:09:21.634Z,102177.00
2023-04-16T15:12:20.063Z,102179.22
2023-04-16T15:15:11.365Z,102177.09
2023-04-16T15:21:12.681Z,102179.53
2023-04-16T15:24:03.350Z,102185.00
2023-04-16T15:30:01.364Z,102192.72
2023-04-16T15:32:55.792Z,102188.22
2023-04-16T15:35:29.691Z,102194.16
2023-04-16T15:38:45.815Z,102188.56
2023-04-16T15:50:35.940Z,102190.78
2023-04-16T15:53:09.023Z,102197.16
2023-04-16T15:55:52.821Z,102193.13
2023-04-16T15:58:25.720Z,102191.09
2023-04-16T16:01:19.175Z,102188.31
2023-04-16T16:03:55.744Z,102189.53
2023-04-16T16:06:28.676Z,102190.78
2023-04-16T16:09:01.873Z,102191.53
2023-04-16T16:11:34.688Z,102192.78
2023-04-16T16:14:22.696Z,102194.81
2023-04-16T16:17:01.197Z,102203.22
2023-04-16T16:19:52.558Z,102198.06
2023-04-16T16:22:25.485Z,102196.97
2023-04-16T16:27:47.443Z,102205.78
2023-04-16T16:30:20.044Z,102196.63
2023-04-16T16:32:55.643Z,102203.44
2023-04-16T16:35:28.248Z,102203.91
2023-04-16T16:41:03.971Z,102205.91
2023-04-16T16:43:38.491Z,102195.97
2023-04-16T16:46:11.510Z,102194.38
2023-04-16T16:52:15.491Z,102192.06
2023-04-16T16:54:48.074Z,102203.69
2023-04-16T16:55:09.728Z,102194.38
2023-04-16T17:00:14.510Z,102204.28
2023-04-16T17:03:08.955Z,102202.69
2023-04-16T17:05:41.934Z,102205.16
2023-04-16T17:08:34.873Z,102204.81
2023-04-16T17:11:08.494Z,102203.28
2023-04-16T17:16:27.409Z,102202.59
2023-04-16T17:19:01.293Z,102209.41
2023-04-16T17:21:33.952Z,102202.25
2023-04-16T17:26:56.979Z,102204.72
2023-04-16T17:29:30.380Z,102199.56
2023-04-16T17:32:03.010Z,102200.50
2023-04-16T17:35:18.549Z,102195.66
2023-04-16T17:38:12.454Z,102192.53
2023-04-16T17:40:57.862Z,102193.78
2023-04-16T17:47:15.208Z,102207.44
2023-04-16T17:50:09.802Z,102204.31
2023-04-16T18:06:41.665Z,102212.56
2023-04-16T18:20:56.064Z,102230.44
2023-04-16T18:23:47.950Z,102227.31
2023-04-16T18:41:27.485Z,102252.38
2023-04-16T18:46:44.609Z,102251.25
2023-04-16T18:49:41.363Z,102248.91
2023-04-16T18:52:14.075Z,102254.16
2023-04-16T18:55:06.942Z,102253.38
2023-04-16T19:01:06.288Z,102258.63
2023-04-16T19:04:33.364Z,102255.03
2023-04-16T19:07:24.045Z,102257.50
2023-04-16T19:09:56.969Z,102250.31
2023-04-16T19:12:43.893Z,102245.97
2023-04-16T19:15:20.437Z,102248.44
2023-04-16T19:17:54.189Z,102256.03
2023-04-16T19:20:30.427Z,102249.66
2023-04-16T19:25:56.278Z,102264.09
2023-04-16T19:28:43.816Z,102261.72
2023-04-16T19:31:34.792Z,102264.53
2023-04-16T19:34:07.444Z,102257.34
2023-04-16T19:36:40.177Z,102264.19
2023-04-16T19:39:12.900Z,102267.41
2023-04-16T19:42:07.995Z,102264.63
2023-04-16T19:44:40.521Z,102266.28
2023-04-16T19:50:24.572Z,102270.31
2023-04-16T19:52:57.027Z,102270.75
2023-04-16T19:55:29.532Z,102265.94
2023-04-16T19:58:06.482Z,102268.41
2023-04-16T20:00:49.859Z,102271.19
2023-04-16T20:03:22.493Z,102268.06
2023-04-16T20:05:55.041Z,102275.66
2023-04-16T20:08:33.631Z,102267.72
2023-04-16T20:11:08.694Z,102270.50
2023-04-16T20:13:41.264Z,102275.75
2023-04-16T20:16:15.038Z,102269.38
2023-04-16T20:18:54.209Z,102278.22
2023-04-16T20:21:26.868Z,102278.22
2023-04-16T20:24:02.719Z,102270.28
2023-04-16T20:26:36.642Z,102267.94
2023-04-16T20:29:10.378Z,102276.75
2023-04-16T20:31:44.403Z,102278.75
2023-04-16T20:39:03.867Z,102272.81
2023-04-16T20:46:35.486Z,102267.25
2023-04-16T20:49:09.415Z,102264.09
2023-04-16T20:51:42.086Z,102274.50
2023-04-16T20:54:24.435Z,102272.94
2023-04-16T20:55:21.861Z,102272.81
2023-04-16T20:57:02.280Z,102271.34
2023-04-16T21:02:28.791Z,102272.25
2023-04-16T21:05:02.103Z,102275.47
2023-04-16T21:07:34.617Z,102276.25
2023-04-16T21:10:08.694Z,102280.28
2023-04-16T21:12:41.082Z,102277.50
2023-04-16T21:15:25.671Z,102279.50
2023-04-16T21:17:58.155Z,102277.94
2023-04-16T21:20:48.352Z,102283.53
2023-04-16T21:23:21.042Z,102280.72
2023-04-16T21:26:10.963Z,102281.63
2023-04-16T21:28:43.802Z,102280.81
2023-04-16T21:31:17.296Z,102280.03
2023-04-16T21:33:49.872Z,102282.47
2023-04-16T21:36:40.110Z,102279.69
2023-04-16T21:42:21.004Z,102286.50
2023-04-16T21:45:12.248Z,102284.94
2023-04-16T21:47:44.864Z,102290.50
2023-04-16T21:50:20.531Z,102283.38
2023-04-16T21:53:13.760Z,102287.38
2023-04-16T21:55:46.472Z,102276.19
2023-04-16T21:58:35.450Z,102290.16
2023-04-16T22:01:10.857Z,102283.03
2023-04-16T22:03:57.129Z,102285.81
2023-04-16T22:06:32.378Z,102283.03
2023-04-16T22:09:05.139Z,102275.84
2023-04-16T22:11:38.392Z,102270.69
2023-04-16T22:14:10.965Z,102277.06
2023-04-16T22:17:02.095Z,102278.28
2023-04-16T22:19:37.348Z,102277.50
2023-04-16T22:22:30.401Z,102269.59
2023-04-16T22:25:05.959Z,102269.59
2023-04-16T22:28:01.366Z,102268.78
2023-04-16T22:30:33.960Z,102269.22
2023-04-16T22:33:06.779Z,102272.81
2023-04-16T22:35:39.615Z,102272.03
2023-04-16T22:38:12.237Z,102277.63
2023-04-16T22:42:42.683Z,102272.47
2023-04-16T22:45:33.679Z,102274.47
2023-04-16T22:48:15.736Z,102271.34
2023-04-16T22:50:48.754Z,102279.72
2023-04-16T22:53:33.508Z,102282.50
2023-04-16T22:56:06.509Z,102276.91
2023-04-16T22:58:57.466Z,102283.72
2023-04-16T23:01:47.697Z,102280.13
2023-04-16T23:04:20.420Z,102279.38
2023-04-16T23:06:58.816Z,102282.16
2023-04-16T23:09:31.512Z,102287.41
2023-04-16T23:12:04.364Z,102283.81
2023-04-16T23:17:25.719Z,102283.00
2023-04-16T23:19:58.465Z,102280.69
2023-04-16T23:22:31.053Z,102291.03
2023-04-16T23:25:03.955Z,102275.53
2023-04-16T23:27:37.348Z,102280.34
2023-04-16T23:32:59.573Z,102287.13
2023-04-16T23:35:44.115Z,102283.56
2023-04-16T23:38:16.703Z,102287.59
2023-04-16T23:40:49.281Z,102279.63
2023-04-16T23:43:22.796Z,102285.22
2023-04-16T23:46:10.975Z,102285.22
2023-04-16T23:48:43.525Z,102273.28
2023-04-16T23:51:38.663Z,102282.88
2023-04-16T23:54:09.504Z,102277.28
2023-04-16T23:56:42.179Z,102280.50
2023-04-16T23:59:33.002Z,102274.91
